Time,TemperatureF,DewpointF,PressureIn,WindDirection,WindDirectionDegrees,WindSpeedMPH,WindSpeedGustMPH,Humidity,HourlyPrecipIn,Conditions,Clouds,dailyrainin,SolarRadiationWatts/m^2,SoftwareType,DateUTC
2013-06-25 00:09:00,61.5,58.0,29.93,SW,231,0.0,3.0,87,0.00,,,0.03,0,weatherlink.com 1.10,2013-06-25 07:09:00,
2013-06-25 00:24:00,61.7,58.0,29.93,SW,231,0.0,1.0,86,0.00,,,0.03,0,weatherlink.com 1.10,2013-06-25 07:24:00,
2013-06-25 00:39:00,62.0,58.0,29.93,SSW,196,4.0,5.0,85,0.00,,,0.03,0,weatherlink.com 1.10,2013-06-25 07:39:00,
2013-06-25 00:54:00,62.5,57.0,29.93,SSE,156,1.0,5.0,82,0.00,,,0.03,0,weatherlink.com 1.10,2013-06-25 07:54:00,
2013-06-25 01:09:00,63.0,57.0,29.93,ESE,121,3.0,4.0,81,0.00,,,0.03,0,weatherlink.com 1.10,2013-06-25 08:09:00,
2013-06-25 01:24:00,62.8,58.0,29.93,SSW,200,0.0,4.0,83,0.00,,,0.03,0,weatherlink.com 1.10,2013-06-25 08:24:00,
2013-06-25 01:39:00,62.6,58.0,29.93,SSW,193,0.0,3.0,85,0.00,,,0.00,0,weatherlink.com 1.10,2013-06-25 08:39:00,
2013-06-25 01:54:00,62.6,58.0,29.93,South,185,0.0,2.0,86,0.01,,,0.01,0,weatherlink.com 1.10,2013-06-25 08:54:00,
2013-06-25 02:09:00,62.5,59.0,29.93,South,171,0.0,0.0,87,0.01,,,0.01,0,weatherlink.com 1.10,2013-06-25 09:09:00,
2013-06-25 02:24:00,62.3,58.0,29.93,SSE,160,0.0,0.0,87,0.01,,,0.01,0,weatherlink.com 1.10,2013-06-25 09:24:00,
2013-06-25 02:39:00,62.1,59.0,29.93,South,180,0.0,2.0,88,0.01,,,0.01,0,weatherlink.com 1.10,2013-06-25 09:39:00,
2013-06-25 02:54:00,62.0,59.0,29.93,South,179,0.0,1.0,88,0.01,,,0.02,0,weatherlink.com 1.10,2013-06-25 09:54:00,
2013-06-25 03:09:00,62.0,59.0,29.92,SSW,193,3.0,7.0,89,0.01,,,0.02,0,weatherlink.com 1.10,2013-06-25 10:09:00,
2013-06-25 03:24:00,61.9,59.0,29.92,SSE,159,2.0,4.0,89,0.01,,,0.02,0,weatherlink.com 1.10,2013-06-25 10:24:00,
2013-06-25 03:39:00,61.9,59.0,29.92,SSE,156,0.0,4.0,90,0.01,,,0.02,0,weatherlink.com 1.10,2013-06-25 10:39:00,
2013-06-25 03:54:00,61.9,59.0,29.92,SSE,158,0.0,2.0,90,0.01,,,0.03,0,weatherlink.com 1.10,2013-06-25 10:54:00,
2013-06-25 04:09:00,62.1,59.0,29.92,SE,146,1.0,5.0,90,0.01,,,0.03,0,weatherlink.com 1.10,2013-06-25 11:09:00,
2013-06-25 04:24:00,62.2,59.0,29.92,SSW,210,3.0,4.0,90,0.02,,,0.04,0,weatherlink.com 1.10,2013-06-25 11:24:00,
2013-06-25 04:39:00,62.3,59.0,29.92,SSE,165,2.0,9.0,90,0.02,,,0.04,0,weatherlink.com 1.10,2013-06-25 11:39:00,
2013-06-25 04:54:00,62.4,59.0,29.92,South,187,3.0,9.0,89,0.01,,,0.04,0,weatherlink.com 1.10,2013-06-25 11:54:00,
2013-06-25 05:09:00,62.6,60.0,29.92,SE,125,2.0,8.0,90,0.01,,,0.04,0,weatherlink.com 1.10,2013-06-25 12:09:00,
2013-06-25 05:24:00,62.7,60.0,29.92,ESE,110,2.0,4.0,90,0.00,,,0.04,0,weatherlink.com 1.10,2013-06-25 12:24:00,
2013-06-25 05:39:00,62.7,60.0,29.93,SE,134,1.0,3.0,90,0.00,,,0.04,0,weatherlink.com 1.10,2013-06-25 12:39:00,
2013-06-25 05:54:00,62.6,60.0,29.93,SE,133,1.0,5.0,90,0.00,,,0.04,0,weatherlink.com 1.10,2013-06-25 12:54:00,
2013-06-25 06:09:00,62.5,60.0,29.93,South,184,2.0,5.0,91,0.01,,,0.05,7,weatherlink.com 1.10,2013-06-25 13:09:00,
2013-06-25 06:24:00,62.4,60.0,29.94,SSE,150,0.0,4.0,91,0.01,,,0.05,21,weatherlink.com 1.10,2013-06-25 13:24:00,
2013-06-25 06:39:00,62.3,60.0,29.94,SSE,164,1.0,3.0,92,0.02,,,0.06,16,weatherlink.com 1.10,2013-06-25 13:39:00,
2013-06-25 06:54:00,62.4,60.0,29.95,SE,136,2.0,3.0,92,0.03,,,0.07,18,weatherlink.com 1.10,2013-06-25 13:54:00,
2013-06-25 07:09:00,62.5,60.0,29.94,SE,130,1.0,5.0,92,0.02,,,0.07,44,weatherlink.com 1.10,2013-06-25 14:09:00,
2013-06-25 07:24:00,62.8,61.0,29.94,South,172,4.0,5.0,92,0.02,,,0.07,67,weatherlink.com 1.10,2013-06-25 14:24:00,
2013-06-25 07:39:00,63.3,61.0,29.94,South,183,0.0,6.0,92,0.01,,,0.07,200,weatherlink.com 1.10,2013-06-25 14:39:00,
2013-06-25 07:54:00,63.8,62.0,29.94,East,95,2.0,6.0,92,0.00,,,0.07,105,weatherlink.com 1.10,2013-06-25 14:54:00,
2013-06-25 08:09:00,64.2,61.0,29.95,ESE,108,8.0,9.0,90,0.00,,,0.07,132,weatherlink.com 1.10,2013-06-25 15:09:00,
2013-06-25 08:24:00,64.8,62.0,29.95,ENE,69,0.0,9.0,89,0.00,,,0.07,81,weatherlink.com 1.10,2013-06-25 15:24:00,
2013-06-25 08:40:00,64.6,61.0,29.95,SE,143,1.0,7.0,89,0.00,,,0.07,120,weatherlink.com 1.10,2013-06-25 15:40:00,
2013-06-25 08:55:00,64.8,62.0,29.96,SE,130,0.0,6.0,89,0.01,,,0.08,116,weatherlink.com 1.10,2013-06-25 15:55:00,
2013-06-25 09:10:00,64.8,62.0,29.96,SSE,147,2.0,7.0,89,0.01,,,0.08,97,weatherlink.com 1.10,2013-06-25 16:10:00,
2013-06-25 09:25:00,65.1,62.0,29.97,SSW,198,0.0,5.0,89,0.01,,,0.08,77,weatherlink.com 1.10,2013-06-25 16:25:00,
2013-06-25 09:40:00,65.5,62.0,29.97,South,172,0.0,3.0,89,0.02,,,0.09,114,weatherlink.com 1.10,2013-06-25 16:40:00,
2013-06-25 09:55:00,65.7,62.0,29.98,South,179,3.0,6.0,89,0.01,,,0.09,125,weatherlink.com 1.10,2013-06-25 16:55:00,
2013-06-25 10:10:00,65.8,63.0,29.98,West,259,4.0,7.0,89,0.01,,,0.09,151,weatherlink.com 1.10,2013-06-25 17:10:00,
2013-06-25 10:25:00,65.9,63.0,29.98,SW,235,2.0,5.0,89,0.02,,,0.10,125,weatherlink.com 1.10,2013-06-25 17:25:00,
2013-06-25 10:40:00,65.9,63.0,29.99,WSW,253,3.0,5.0,89,0.01,,,0.10,165,weatherlink.com 1.10,2013-06-25 17:40:00,
2013-06-25 10:55:00,66.0,63.0,29.99,South,190,1.0,8.0,89,0.01,,,0.10,167,weatherlink.com 1.10,2013-06-25 17:55:00,
2013-06-25 11:10:00,66.0,63.0,29.99,South,189,1.0,8.0,89,0.01,,,0.10,309,weatherlink.com 1.10,2013-06-25 18:10:00,
2013-06-25 11:25:00,66.5,62.0,30.00,South,179,3.0,10.0,86,0.00,,,0.10,169,weatherlink.com 1.10,2013-06-25 18:25:00,
2013-06-25 11:40:00,66.2,62.0,30.00,South,180,6.0,14.0,85,0.00,,,0.10,193,weatherlink.com 1.10,2013-06-25 18:40:00,
2013-06-25 11:55:00,66.8,62.0,30.00,SSW,204,3.0,9.0,85,0.00,,,0.10,163,weatherlink.com 1.10,2013-06-25 18:55:00,
2013-06-25 12:10:00,66.0,62.0,30.01,SSW,199,2.0,9.0,87,0.00,,,0.10,144,weatherlink.com 1.10,2013-06-25 19:10:00,
2013-06-25 12:25:00,65.9,62.0,30.01,WSW,250,1.0,10.0,88,0.00,,,0.10,190,weatherlink.com 1.10,2013-06-25 19:25:00,
2013-06-25 12:40:00,66.0,63.0,30.01,ESE,104,3.0,9.0,89,0.00,,,0.10,225,weatherlink.com 1.10,2013-06-25 19:40:00,
2013-06-25 12:55:00,66.3,63.0,30.02,SSW,195,1.0,6.0,89,0.00,,,0.10,318,weatherlink.com 1.10,2013-06-25 19:55:00,
2013-06-25 13:10:00,66.9,63.0,30.02,South,172,3.0,8.0,87,0.00,,,0.10,181,weatherlink.com 1.10,2013-06-25 20:10:00,
2013-06-25 13:25:00,67.3,63.0,30.02,South,171,3.0,8.0,85,0.00,,,0.10,178,weatherlink.com 1.10,2013-06-25 20:25:00,
2013-06-25 13:40:00,67.9,63.0,30.01,SW,235,5.0,11.0,83,0.00,,,0.10,186,weatherlink.com 1.10,2013-06-25 20:40:00,
2013-06-25 13:55:00,68.6,63.0,30.01,South,185,5.0,8.0,82,0.00,,,0.10,167,weatherlink.com 1.10,2013-06-25 20:55:00,
2013-06-25 14:10:00,68.9,63.0,30.02,WSW,239,6.0,10.0,82,0.00,,,0.10,257,weatherlink.com 1.10,2013-06-25 21:10:00,
2013-06-25 14:25:00,69.2,64.0,30.02,SW,229,2.0,10.0,83,0.00,,,0.10,288,weatherlink.com 1.10,2013-06-25 21:25:00,
2013-06-25 14:40:00,69.3,64.0,30.02,SW,230,1.0,9.0,82,0.00,,,0.10,276,weatherlink.com 1.10,2013-06-25 21:40:00,
2013-06-25 14:55:00,69.2,64.0,30.02,SSW,202,2.0,11.0,82,0.00,,,0.10,193,weatherlink.com 1.10,2013-06-25 21:55:00,
2013-06-25 15:10:00,69.5,63.0,30.01,South,191,3.0,8.0,81,0.00,,,0.10,151,weatherlink.com 1.10,2013-06-25 22:10:00,
2013-06-25 15:25:00,69.3,64.0,30.01,SW,229,1.0,8.0,82,0.00,,,0.10,250,weatherlink.com 1.10,2013-06-25 22:25:00,
2013-06-25 15:40:00,69.8,64.0,30.00,SW,229,5.0,12.0,81,0.00,,,0.10,339,weatherlink.com 1.10,2013-06-25 22:40:00,
2013-06-25 15:55:00,71.0,64.0,30.00,SSE,164,0.0,8.0,79,0.00,,,0.10,410,weatherlink.com 1.10,2013-06-25 22:55:00,
2013-06-25 16:10:00,71.4,64.0,30.00,SSW,207,3.0,7.0,78,0.00,,,0.10,251,weatherlink.com 1.10,2013-06-25 23:10:00,
2013-06-25 16:25:00,71.3,64.0,30.00,SSW,192,5.0,9.0,78,0.00,,,0.10,271,weatherlink.com 1.10,2013-06-25 23:25:00,
2013-06-25 16:40:00,71.2,64.0,30.00,South,186,1.0,7.0,78,0.00,,,0.10,218,weatherlink.com 1.10,2013-06-25 23:40:00,
2013-06-25 16:55:00,71.3,64.0,30.00,SW,228,1.0,10.0,77,0.00,,,0.10,165,weatherlink.com 1.10,2013-06-25 23:55:00,
2013-06-25 17:10:00,71.1,64.0,29.99,SW,218,5.0,8.0,78,0.00,,,0.10,408,weatherlink.com 1.10,2013-06-26 00:10:00,
2013-06-25 17:25:00,71.7,64.0,29.99,West,262,3.0,9.0,77,0.00,,,0.10,350,weatherlink.com 1.10,2013-06-26 00:25:00,
2013-06-25 17:40:00,71.4,64.0,30.00,SSW,208,6.0,9.0,76,0.00,,,0.10,297,weatherlink.com 1.10,2013-06-26 00:40:00,
2013-06-25 17:55:00,70.3,63.0,29.99,SW,236,3.0,13.0,78,0.00,,,0.10,265,weatherlink.com 1.10,2013-06-26 00:55:00,
2013-06-25 18:10:00,69.7,63.0,30.00,SSW,201,4.0,14.0,80,0.00,,,0.10,410,weatherlink.com 1.10,2013-06-26 01:10:00,
2013-06-25 18:25:00,68.4,63.0,30.00,WSW,256,7.0,10.0,82,0.00,,,0.10,281,weatherlink.com 1.10,2013-06-26 01:25:00,
2013-06-25 18:40:00,68.0,62.0,30.00,West,266,3.0,8.0,82,0.00,,,0.10,221,weatherlink.com 1.10,2013-06-26 01:40:00,
2013-06-25 18:55:00,67.2,62.0,30.00,SW,225,5.0,8.0,83,0.00,,,0.10,193,weatherlink.com 1.10,2013-06-26 01:55:00,
2013-06-25 19:10:00,67.0,62.0,29.99,SW,222,2.0,7.0,84,0.00,,,0.10,278,weatherlink.com 1.10,2013-06-26 02:10:00,
2013-06-25 19:26:00,67.4,62.0,29.99,SSW,204,4.0,7.0,84,0.00,,,0.10,130,weatherlink.com 1.10,2013-06-26 02:26:00,
2013-06-25 19:41:00,66.6,62.0,29.99,SW,223,2.0,9.0,85,0.00,,,0.10,81,weatherlink.com 1.10,2013-06-26 02:41:00,
2013-06-25 19:56:00,66.5,62.0,29.99,SW,223,2.0,8.0,85,0.00,,,0.10,33,weatherlink.com 1.10,2013-06-26 02:56:00,
2013-06-25 20:11:00,65.8,62.0,29.99,SSW,208,3.0,7.0,87,0.00,,,0.10,16,weatherlink.com 1.10,2013-06-26 03:11:00,
2013-06-25 20:26:00,65.1,61.0,29.99,SW,227,3.0,7.0,87,0.00,,,0.10,7,weatherlink.com 1.10,2013-06-26 03:26:00,
2013-06-25 20:41:00,64.8,61.0,29.99,SW,231,2.0,8.0,88,0.00,,,0.10,0,weatherlink.com 1.10,2013-06-26 03:41:00,
2013-06-25 20:56:00,64.5,61.0,29.99,SW,233,2.0,7.0,89,0.00,,,0.10,0,weatherlink.com 1.10,2013-06-26 03:56:00,
2013-06-25 21:11:00,64.1,62.0,30.00,SW,225,3.0,7.0,91,0.00,,,0.10,0,weatherlink.com 1.10,2013-06-26 04:11:00,
2013-06-25 21:26:00,63.8,62.0,30.00,SW,217,3.0,7.0,92,0.00,,,0.10,0,weatherlink.com 1.10,2013-06-26 04:26:00,
2013-06-25 21:41:00,63.8,62.0,30.00,SW,235,2.0,6.0,92,0.00,,,0.10,0,weatherlink.com 1.10,2013-06-26 04:41:00,
2013-06-25 21:56:00,63.7,62.0,30.01,SW,225,4.0,7.0,93,0.00,,,0.10,0,weatherlink.com 1.10,2013-06-26 04:56:00,
2013-06-25 22:11:00,63.6,62.0,30.00,SW,227,0.0,5.0,93,0.00,,,0.10,0,weatherlink.com 1.10,2013-06-26 05:11:00,
2013-06-25 22:26:00,63.5,62.0,30.01,WSW,248,5.0,6.0,93,0.00,,,0.10,0,weatherlink.com 1.10,2013-06-26 05:26:00,
2013-06-25 22:41:00,63.6,62.0,30.01,WSW,245,0.0,3.0,94,0.00,,,0.10,0,weatherlink.com 1.10,2013-06-26 05:41:00,
2013-06-25 22:56:00,63.7,62.0,30.01,SSW,207,2.0,6.0,94,0.00,,,0.10,0,weatherlink.com 1.10,2013-06-26 05:56:00,
2013-06-25 23:11:00,63.8,62.0,30.01,SSW,204,0.0,4.0,94,0.00,,,0.10,0,weatherlink.com 1.10,2013-06-26 06:11:00,
2013-06-25 23:26:00,63.6,62.0,30.01,SW,231,0.0,5.0,94,0.00,,,0.10,0,weatherlink.com 1.10,2013-06-26 06:26:00,
2013-06-25 23:41:00,63.2,62.0,30.01,SSW,207,1.0,4.0,94,0.00,,,0.10,0,weatherlink.com 1.10,2013-06-26 06:41:00,
2013-06-25 23:56:00,62.9,61.0,30.01,SSW,200,2.0,7.0,94,0.00,,,0.10,0,weatherlink.com 1.10,2013-06-26 06:56:00,